createdAt,value
2023-04-22T00:00:47.230Z,987.60
2023-04-22T00:01:47.202Z,987.60
2023-04-22T00:02:47.328Z,987.61
2023-04-22T00:03:47.401Z,987.58
2023-04-22T00:04:47.546Z,987.60
2023-04-22T00:05:47.205Z,987.54
2023-04-22T00:06:47.150Z,987.62
2023-04-22T00:07:47.134Z,987.60
2023-04-22T00:08:47.134Z,987.56
2023-04-22T00:09:47.157Z,987.55
2023-04-22T00:10:47.111Z,987.50
2023-04-22T00:11:47.318Z,987.53
2023-04-22T00:12:47.089Z,987.52
2023-04-22T00:13:47.086Z,987.51
2023-04-22T00:14:47.075Z,987.49
2023-04-22T00:15:47.142Z,987.49
2023-04-22T00:16:47.210Z,987.44
2023-04-22T00:17:47.103Z,987.42
2023-04-22T00:18:47.028Z,987.40
2023-04-22T00:19:47.022Z,987.41
2023-04-22T00:20:47.013Z,987.38
2023-04-22T00:21:47.017Z,987.39
2023-04-22T00:22:46.993Z,987.45
2023-04-22T00:23:46.998Z,987.37
2023-04-22T00:24:46.984Z,987.38
2023-04-22T00:25:46.963Z,987.38
2023-04-22T00:26:46.954Z,987.39
2023-04-22T00:27:46.938Z,987.37
2023-04-22T00:28:46.928Z,987.40
2023-04-22T00:29:46.920Z,987.37
2023-04-22T00:30:46.916Z,987.34
2023-04-22T00:31:47.023Z,987.41
2023-04-22T00:32:46.957Z,987.39
2023-04-22T00:33:46.890Z,987.33
2023-04-22T00:34:46.881Z,987.34
2023-04-22T00:35:46.872Z,987.37
2023-04-22T00:36:46.877Z,987.33
2023-04-22T00:37:46.840Z,987.29
2023-04-22T00:38:46.848Z,987.31
2023-04-22T00:39:46.837Z,987.29
2023-04-22T00:40:46.832Z,987.34
2023-04-22T00:41:46.816Z,987.32
2023-04-22T00:42:46.801Z,987.28
2023-04-22T00:43:46.794Z,987.30
2023-04-22T00:44:46.779Z,987.32
2023-04-22T00:45:46.776Z,987.33
2023-04-22T00:46:46.832Z,987.31
2023-04-22T00:47:46.832Z,987.34
2023-04-22T00:48:46.768Z,987.33
2023-04-22T00:49:46.726Z,987.34
2023-04-22T00:50:46.722Z,987.35
2023-04-22T00:51:46.709Z,987.35
2023-04-22T00:52:46.707Z,987.37
2023-04-22T00:53:46.691Z,987.34
2023-04-22T00:54:46.697Z,987.37
2023-04-22T00:55:46.676Z,987.37
2023-04-22T00:56:46.701Z,987.41
2023-04-22T00:57:46.672Z,987.35
2023-04-22T00:58:46.660Z,987.36
2023-04-22T00:59:46.640Z,987.37
2023-04-22T01:00:46.680Z,987.37
2023-04-22T01:01:46.664Z,987.31
2023-04-22T01:02:46.877Z,987.33
2023-04-22T01:03:46.748Z,987.34
2023-04-22T01:04:46.603Z,987.34
2023-04-22T01:05:46.584Z,987.31
2023-04-22T01:06:46.607Z,987.27
2023-04-22T01:07:46.547Z,987.34
2023-04-22T01:08:46.580Z,987.32
2023-04-22T01:09:46.539Z,987.31
2023-04-22T01:10:46.528Z,987.31
2023-04-22T01:11:46.516Z,987.33
2023-04-22T01:12:46.519Z,987.28
2023-04-22T01:13:46.500Z,987.27
2023-04-22T01:14:46.492Z,987.33
2023-04-22T01:15:46.478Z,987.33
2023-04-22T01:16:46.479Z,987.33
2023-04-22T01:17:46.484Z,987.32
2023-04-22T01:18:46.448Z,987.27
2023-04-22T01:19:46.433Z,987.35
2023-04-22T01:20:46.446Z,987.37
2023-04-22T01:21:46.409Z,987.32
2023-04-22T01:22:46.407Z,987.34
2023-04-22T01:23:46.410Z,987.34
2023-04-22T01:24:46.400Z,987.31
2023-04-22T01:25:46.376Z,987.30
2023-04-22T01:26:46.361Z,987.28
2023-04-22T01:27:46.344Z,987.30
2023-04-22T01:28:46.342Z,987.28
2023-04-22T01:29:46.336Z,987.29
2023-04-22T01:30:46.322Z,987.24
2023-04-22T01:31:46.391Z,987.24
2023-04-22T01:32:46.343Z,987.27
2023-04-22T01:33:46.288Z,987.29
2023-04-22T01:34:46.291Z,987.27
2023-04-22T01:35:46.279Z,987.30
2023-04-22T01:36:46.293Z,987.31
2023-04-22T01:37:46.256Z,987.30
2023-04-22T01:38:46.239Z,987.35
2023-04-22T01:39:46.231Z,987.33
2023-04-22T01:40:46.235Z,987.33
2023-04-22T01:41:46.201Z,987.36
2023-04-22T01:42:46.195Z,987.32
2023-04-22T01:43:46.217Z,987.30
2023-04-22T01:44:46.181Z,987.31
2023-04-22T01:45:46.203Z,987.30
2023-04-22T01:46:46.152Z,987.30
2023-04-22T01:47:46.178Z,987.29
2023-04-22T01:48:46.136Z,987.30
2023-04-22T01:49:46.142Z,987.31
2023-04-22T01:50:46.118Z,987.28
2023-04-22T01:51:46.120Z,987.30
2023-04-22T01:52:46.115Z,987.33
2023-04-22T01:53:46.085Z,987.34
2023-04-22T01:54:46.078Z,987.32
2023-04-22T01:55:46.052Z,987.34
2023-04-22T01:56:46.050Z,987.31
2023-04-22T01:57:46.046Z,987.34
2023-04-22T01:58:46.071Z,987.28
2023-04-22T01:59:46.021Z,987.29
2023-04-22T02:00:46.217Z,987.28
2023-04-22T02:01:46.043Z,987.30
2023-04-22T02:02:46.127Z,987.31
2023-04-22T02:03:46.181Z,987.29
2023-04-22T02:04:46.024Z,987.30
2023-04-22T02:05:45.950Z,987.31
2023-04-22T02:06:45.945Z,987.33
2023-04-22T02:07:45.937Z,987.31
2023-04-22T02:08:45.952Z,987.28
2023-04-22T02:09:46.378Z,987.31
2023-04-22T02:10:45.899Z,987.32
2023-04-22T02:11:45.893Z,987.31
2023-04-22T02:12:45.891Z,987.31
2023-04-22T02:13:45.882Z,987.32
2023-04-22T02:14:45.851Z,987.33
2023-04-22T02:15:45.877Z,987.32
2023-04-22T02:16:45.858Z,987.29
2023-04-22T02:17:45.824Z,987.28
2023-04-22T02:18:45.812Z,987.28
2023-04-22T02:19:45.893Z,987.29
2023-04-22T02:20:45.788Z,987.32
2023-04-22T02:21:45.781Z,987.32
2023-04-22T02:22:45.968Z,987.27
2023-04-22T02:23:45.784Z,987.29
2023-04-22T02:24:45.760Z,987.31
2023-04-22T02:25:45.747Z,987.28
2023-04-22T02:26:45.735Z,987.28
2023-04-22T02:27:45.734Z,987.30
2023-04-22T02:28:45.726Z,987.30
2023-04-22T02:29:45.713Z,987.26
2023-04-22T02:30:45.674Z,987.28
2023-04-22T02:31:45.733Z,987.27
2023-04-22T02:32:45.745Z,987.28
2023-04-22T02:33:45.663Z,987.27
2023-04-22T02:34:45.635Z,987.27
2023-04-22T02:35:45.620Z,987.25
2023-04-22T02:36:45.616Z,987.24
2023-04-22T02:37:45.633Z,987.22
2023-04-22T02:38:45.604Z,987.22
2023-04-22T02:39:45.582Z,987.23
2023-04-22T02:40:45.591Z,987.23
2023-04-22T02:41:45.597Z,987.23
2023-04-22T02:42:45.565Z,987.23
2023-04-22T02:43:45.549Z,987.23
2023-04-22T02:44:45.549Z,987.22
2023-04-22T02:45:45.538Z,987.20
2023-04-22T02:46:45.610Z,987.21
2023-04-22T02:47:45.772Z,987.19
2023-04-22T02:48:45.495Z,987.18
2023-04-22T02:49:45.482Z,987.17
2023-04-22T02:50:45.451Z,987.17
2023-04-22T02:51:45.476Z,987.15
2023-04-22T02:52:45.427Z,987.19
2023-04-22T02:53:45.497Z,987.17
2023-04-22T02:54:45.437Z,987.15
2023-04-22T02:55:45.602Z,987.15
2023-04-22T02:56:45.440Z,987.17
2023-04-22T02:57:45.400Z,987.12
2023-04-22T02:58:45.388Z,987.11
2023-04-22T02:59:45.364Z,987.13
2023-04-22T03:00:45.404Z,987.12
2023-04-22T03:01:45.434Z,987.14
2023-04-22T03:02:45.521Z,987.14
2023-04-22T03:03:45.463Z,987.15
2023-04-22T03:04:45.327Z,987.17
2023-04-22T03:05:45.366Z,987.18
2023-04-22T03:06:45.485Z,987.18
2023-04-22T03:07:45.290Z,987.20
2023-04-22T03:08:45.264Z,987.22
2023-04-22T03:09:45.276Z,987.21
2023-04-22T03:10:45.243Z,987.22
2023-04-22T03:11:45.227Z,987.25
2023-04-22T03:12:45.233Z,987.22
2023-04-22T03:13:45.204Z,987.26
2023-04-22T03:14:45.238Z,987.23
2023-04-22T03:15:45.222Z,987.21
2023-04-22T03:16:45.255Z,987.19
2023-04-22T03:17:45.192Z,987.20
2023-04-22T03:18:45.167Z,987.19
2023-04-22T03:19:45.137Z,987.20
2023-04-22T03:20:45.165Z,987.19
2023-04-22T03:21:45.146Z,987.18
2023-04-22T03:22:45.140Z,987.19
2023-04-22T03:23:45.097Z,987.20
2023-04-22T03:24:45.086Z,987.20
2023-04-22T03:25:45.086Z,987.18
2023-04-22T03:26:45.091Z,987.16
2023-04-22T03:27:45.082Z,987.16
2023-04-22T03:28:45.079Z,987.14
2023-04-22T03:29:45.042Z,987.15
2023-04-22T03:30:45.030Z,987.13
2023-04-22T03:31:45.189Z,987.12
2023-04-22T03:32:45.096Z,987.14
2023-04-22T03:33:45.009Z,987.13
2023-04-22T03:34:45.010Z,987.14
2023-04-22T03:35:44.977Z,987.10
2023-04-22T03:36:44.984Z,987.13
2023-04-22T03:37:44.973Z,987.13
2023-04-22T03:38:44.941Z,987.13
2023-04-22T03:39:44.961Z,987.12
2023-04-22T03:40:44.948Z,987.13
2023-04-22T03:41:44.903Z,987.12
2023-04-22T03:42:44.916Z,987.17
2023-04-22T03:43:44.883Z,987.12
2023-04-22T03:44:44.936Z,987.15
2023-04-22T03:45:44.873Z,987.12
2023-04-22T03:46:44.872Z,987.09
2023-04-22T03:47:44.892Z,987.15
2023-04-22T03:48:44.878Z,987.12
2023-04-22T03:49:44.842Z,987.16
2023-04-22T03:50:44.867Z,987.15
2023-04-22T03:51:44.803Z,987.14
2023-04-22T03:52:44.780Z,987.15
2023-04-22T03:53:44.813Z,987.16
2023-04-22T03:54:44.826Z,987.17
2023-04-22T03:55:44.877Z,987.18
2023-04-22T03:56:44.818Z,987.16
2023-04-22T03:57:44.769Z,987.14
2023-04-22T03:58:44.736Z,987.15
2023-04-22T03:59:44.715Z,987.11
2023-04-22T04:00:44.733Z,987.13
2023-04-22T04:01:44.723Z,987.11
2023-04-22T04:02:44.986Z,987.13
2023-04-22T04:03:44.870Z,987.12
2023-04-22T04:04:44.994Z,987.05
2023-04-22T04:05:44.735Z,987.13
2023-04-22T04:06:44.704Z,987.14
2023-04-22T04:07:44.644Z,987.17
2023-04-22T04:08:44.612Z,987.14
2023-04-22T04:09:44.624Z,987.13
2023-04-22T04:10:44.610Z,987.20
2023-04-22T04:11:44.646Z,987.24
2023-04-22T04:12:44.596Z,987.21
2023-04-22T04:13:44.560Z,987.18
2023-04-22T04:14:44.639Z,987.19
2023-04-22T04:15:44.561Z,987.17
2023-04-22T04:16:44.585Z,987.16
2023-04-22T04:17:44.612Z,987.17
2023-04-22T04:18:44.502Z,987.16
2023-04-22T04:19:44.597Z,987.19
2023-04-22T04:20:44.530Z,987.17
2023-04-22T04:21:44.496Z,987.15
2023-04-22T04:22:44.602Z,987.15
2023-04-22T04:23:44.478Z,987.17
2023-04-22T04:24:44.438Z,987.18
2023-04-22T04:25:44.435Z,987.15
2023-04-22T04:26:44.433Z,987.13
2023-04-22T04:27:44.658Z,987.15
2023-04-22T04:28:44.430Z,987.19
2023-04-22T04:29:44.509Z,987.17
2023-04-22T04:30:44.451Z,987.18
2023-04-22T04:31:44.483Z,987.21
2023-04-22T04:32:44.421Z,987.24
2023-04-22T04:33:44.374Z,987.22
2023-04-22T04:34:44.383Z,987.21
2023-04-22T04:35:44.345Z,987.24
2023-04-22T04:36:44.368Z,987.23
2023-04-22T04:37:44.337Z,987.25
2023-04-22T04:38:44.417Z,987.24
2023-04-22T04:39:44.315Z,987.20
2023-04-22T04:40:44.304Z,987.16
2023-04-22T04:41:44.259Z,987.20
2023-04-22T04:42:44.297Z,987.19
2023-04-22T04:43:44.283Z,987.21
2023-04-22T04:44:44.300Z,987.21
2023-04-22T04:45:46.211Z,987.22
2023-04-22T04:46:44.300Z,987.23
2023-04-22T04:47:44.270Z,987.23
2023-04-22T04:48:44.219Z,987.24
2023-04-22T04:49:44.192Z,987.25
2023-04-22T04:50:44.191Z,987.27
2023-04-22T04:51:44.173Z,987.28
2023-04-22T04:52:44.175Z,987.26
2023-04-22T04:53:44.151Z,987.26
2023-04-22T04:54:44.154Z,987.28
2023-04-22T04:55:44.127Z,987.34
2023-04-22T04:56:44.103Z,987.29
2023-04-22T04:57:44.147Z,987.31
2023-04-22T04:58:44.118Z,987.32
2023-04-22T04:59:44.153Z,987.33
2023-04-22T05:00:44.102Z,987.32
2023-04-22T05:01:44.117Z,987.32
2023-04-22T05:02:44.179Z,987.33
2023-04-22T05:03:44.197Z,987.34
2023-04-22T05:04:44.257Z,987.33
2023-04-22T05:05:44.046Z,987.34
2023-04-22T05:06:44.027Z,987.33
2023-04-22T05:07:44.026Z,987.35
2023-04-22T05:08:44.064Z,987.35
2023-04-22T05:09:43.963Z,987.35
2023-04-22T05:10:43.972Z,987.35
2023-04-22T05:11:43.986Z,987.38
2023-04-22T05:12:43.971Z,987.35
2023-04-22T05:13:43.995Z,987.38
2023-04-22T05:14:43.983Z,987.37
2023-04-22T05:15:43.966Z,987.37
2023-04-22T05:16:43.965Z,987.37
2023-04-22T05:17:43.959Z,987.35
2023-04-22T05:18:43.908Z,987.38
2023-04-22T05:19:43.877Z,987.37
2023-04-22T05:20:43.896Z,987.36
2023-04-22T05:21:43.882Z,987.35
2023-04-22T05:22:43.971Z,987.37
2023-04-22T05:23:43.885Z,987.34
2023-04-22T05:24:43.846Z,987.33
2023-04-22T05:25:43.844Z,987.34
2023-04-22T05:26:43.826Z,987.34
2023-04-22T05:27:43.867Z,987.37
2023-04-22T05:28:43.821Z,987.38
2023-04-22T05:29:43.812Z,987.40
2023-04-22T05:30:43.826Z,987.39
2023-04-22T05:31:43.855Z,987.37
2023-04-22T05:32:43.844Z,987.38
2023-04-22T05:33:43.818Z,987.40
2023-04-22T05:34:43.783Z,987.40
2023-04-22T05:35:43.766Z,987.43
2023-04-22T05:36:43.774Z,987.43
2023-04-22T05:37:43.723Z,987.43
2023-04-22T05:38:43.710Z,987.43
2023-04-22T05:39:43.691Z,987.42
2023-04-22T05:40:43.732Z,987.39
2023-04-22T05:41:46.169Z,987.42
2023-04-22T05:42:43.672Z,987.40
2023-04-22T05:43:43.679Z,987.44
2023-04-22T05:44:43.700Z,987.42
2023-04-22T05:45:43.682Z,987.42
2023-04-22T05:46:43.676Z,987.41
2023-04-22T05:47:43.660Z,987.43
2023-04-22T05:48:43.612Z,987.42
2023-04-22T05:49:43.626Z,987.45
2023-04-22T05:50:43.880Z,987.42
2023-04-22T05:51:43.594Z,987.44
2023-04-22T05:52:43.591Z,987.48
2023-04-22T05:53:43.567Z,987.43
2023-04-22T05:54:43.599Z,987.44
2023-04-22T05:55:43.579Z,987.44
2023-04-22T05:56:43.553Z,987.42
2023-04-22T05:57:43.550Z,987.44
2023-04-22T05:58:43.581Z,987.46
2023-04-22T05:59:43.677Z,987.43
2023-04-22T06:00:43.574Z,987.46
2023-04-22T06:01:43.517Z,987.46
2023-04-22T06:02:43.707Z,987.39
2023-04-22T06:03:43.698Z,987.39
2023-04-22T06:04:43.815Z,987.41
2023-04-22T06:05:43.619Z,987.39
2023-04-22T06:06:43.557Z,987.41
2023-04-22T06:07:43.462Z,987.42
2023-04-22T06:08:43.468Z,987.46
2023-04-22T06:09:43.482Z,987.40
2023-04-22T06:10:43.424Z,987.39
2023-04-22T06:11:43.466Z,987.42
2023-04-22T06:12:43.412Z,987.41
2023-04-22T06:13:43.417Z,987.39
2023-04-22T06:14:43.398Z,987.41
2023-04-22T06:15:43.628Z,987.40
2023-04-22T06:16:43.361Z,987.42
2023-04-22T06:17:43.386Z,987.42
2023-04-22T06:18:43.788Z,987.44
2023-04-22T06:19:43.339Z,987.42
2023-04-22T06:20:43.398Z,987.41
2023-04-22T06:21:43.323Z,987.43
2023-04-22T06:22:43.304Z,987.43
2023-04-22T06:23:43.306Z,987.42
2023-04-22T06:24:43.376Z,987.43
2023-04-22T06:25:43.304Z,987.45
2023-04-22T06:26:43.305Z,987.41
2023-04-22T06:27:43.321Z,987.44
2023-04-22T06:28:43.294Z,987.40
2023-04-22T06:29:43.265Z,987.44
2023-04-22T06:30:43.287Z,987.42
2023-04-22T06:31:43.411Z,987.42
2023-04-22T06:32:43.276Z,987.40
2023-04-22T06:33:43.435Z,987.38
2023-04-22T06:34:43.233Z,987.37
2023-04-22T06:35:43.263Z,987.38
2023-04-22T06:36:43.230Z,987.36
2023-04-22T06:37:43.272Z,987.39
2023-04-22T06:38:43.180Z,987.36
2023-04-22T06:39:43.392Z,987.38
2023-04-22T06:40:43.205Z,987.38
2023-04-22T06:41:43.196Z,987.35
2023-04-22T06:42:43.165Z,987.38
2023-04-22T06:43:43.136Z,987.36
2023-04-22T06:44:43.186Z,987.32
2023-04-22T06:45:43.151Z,987.35
2023-04-22T06:46:43.169Z,987.39
2023-04-22T06:47:43.413Z,987.39
2023-04-22T06:48:43.133Z,987.39
2023-04-22T06:49:43.128Z,987.40
2023-04-22T06:50:43.110Z,987.40
2023-04-22T06:51:43.090Z,987.41
2023-04-22T06:52:43.112Z,987.39
2023-04-22T06:53:43.129Z,987.41
2023-04-22T06:54:43.091Z,987.41
2023-04-22T06:55:43.085Z,987.44
2023-04-22T06:56:43.107Z,987.43
2023-04-22T06:57:43.276Z,987.41
2023-04-22T06:58:43.061Z,987.41
2023-04-22T06:59:44.537Z,987.46
2023-04-22T07:00:43.081Z,987.43
2023-04-22T07:01:43.302Z,987.44
2023-04-22T07:02:43.074Z,987.41
2023-04-22T07:03:43.072Z,987.44
2023-04-22T07:04:43.219Z,987.41
2023-04-22T07:05:43.200Z,987.42
2023-04-22T07:06:43.027Z,987.40
2023-04-22T07:07:42.980Z,987.39
2023-04-22T07:08:43.005Z,987.37
2023-04-22T07:09:43.207Z,987.39
2023-04-22T07:10:42.967Z,987.43
2023-04-22T07:11:42.982Z,987.40
2023-04-22T07:12:43.024Z,987.41
2023-04-22T07:13:43.037Z,987.42
2023-04-22T07:14:42.956Z,987.41
2023-04-22T07:15:43.138Z,987.46
2023-04-22T07:16:43.062Z,987.43
2023-04-22T07:17:43.016Z,987.43
2023-04-22T07:18:42.969Z,987.40
2023-04-22T07:19:42.959Z,987.42
2023-04-22T07:20:42.952Z,987.39
2023-04-22T07:21:42.954Z,987.37
2023-04-22T07:22:42.984Z,987.34
2023-04-22T07:23:42.879Z,987.32
2023-04-22T07:24:42.889Z,987.31
2023-04-22T07:25:42.858Z,987.31
2023-04-22T07:26:42.882Z,987.28
2023-04-22T07:27:42.888Z,987.27
2023-04-22T07:28:42.853Z,987.27
2023-04-22T07:29:42.843Z,987.27
2023-04-22T07:30:42.878Z,987.27
2023-04-22T07:31:42.855Z,987.26
2023-04-22T07:32:42.853Z,987.25
2023-04-22T07:33:42.809Z,987.22
2023-04-22T07:34:42.799Z,987.22
2023-04-22T07:35:42.812Z,987.21
2023-04-22T07:36:42.793Z,987.19
2023-04-22T07:37:42.797Z,987.18
2023-04-22T07:38:42.823Z,987.17
2023-04-22T07:39:42.831Z,987.16
2023-04-22T07:40:42.787Z,987.13
2023-04-22T07:41:42.853Z,987.17
2023-04-22T07:42:42.779Z,987.19
2023-04-22T07:43:42.761Z,987.15
2023-04-22T07:44:42.789Z,987.15
2023-04-22T07:45:42.819Z,987.16
2023-04-22T07:46:42.771Z,987.15
2023-04-22T07:47:42.796Z,987.16
2023-04-22T07:48:42.754Z,987.17
2023-04-22T07:49:42.823Z,987.19
2023-04-22T07:50:42.723Z,987.20
2023-04-22T07:51:42.712Z,987.20
2023-04-22T07:52:42.722Z,987.19
2023-04-22T07:53:42.915Z,987.15
2023-04-22T07:54:42.698Z,987.16
2023-04-22T07:55:42.706Z,987.17
2023-04-22T07:56:42.666Z,987.15
2023-04-22T07:57:42.700Z,987.14
2023-04-22T07:58:42.704Z,987.20
2023-04-22T07:59:42.676Z,987.20
2023-04-22T08:00:42.719Z,987.16
2023-04-22T08:01:42.714Z,987.19
2023-04-22T08:02:42.871Z,987.14
2023-04-22T08:03:42.829Z,987.10
2023-04-22T08:04:42.807Z,987.10
2023-04-22T08:05:42.649Z,987.11
2023-04-22T08:06:42.638Z,987.09
2023-04-22T08:07:42.720Z,987.15
2023-04-22T08:08:42.646Z,987.12
2023-04-22T08:09:42.621Z,987.12
2023-04-22T08:10:42.638Z,987.15
2023-04-22T08:11:42.606Z,987.38
2023-04-22T08:12:42.618Z,987.53
2023-04-22T08:13:42.608Z,987.35
2023-04-22T08:14:42.599Z,987.17
2023-04-22T08:15:42.894Z,987.13
2023-04-22T08:16:42.582Z,987.16
2023-04-22T08:17:42.602Z,987.24
2023-04-22T08:18:42.576Z,987.34
2023-04-22T08:19:42.564Z,987.31
2023-04-22T08:20:42.572Z,987.14
2023-04-22T08:21:42.780Z,987.11
2023-04-22T08:22:42.799Z,987.14
2023-04-22T08:23:42.553Z,987.13
2023-04-22T08:24:42.548Z,987.12
2023-04-22T08:25:42.546Z,987.10
2023-04-22T08:26:42.606Z,987.05
2023-04-22T08:27:42.532Z,987.11
2023-04-22T08:28:42.533Z,987.08
2023-04-22T08:29:43.218Z,987.03
2023-04-22T08:30:42.519Z,987.06
2023-04-22T08:31:42.591Z,987.06
2023-04-22T08:32:42.602Z,987.00
2023-04-22T08:33:42.579Z,986.99
2023-04-22T08:34:43.939Z,986.97
2023-04-22T08:35:42.531Z,987.02
2023-04-22T08:36:42.518Z,986.98
2023-04-22T08:37:42.637Z,986.99
2023-04-22T08:38:42.485Z,986.99
2023-04-22T08:39:42.500Z,987.05
2023-04-22T08:40:42.530Z,986.97
2023-04-22T08:41:42.499Z,987.03
2023-04-22T08:42:42.527Z,986.99
2023-04-22T08:43:42.509Z,986.99
2023-04-22T08:44:42.498Z,987.00
2023-04-22T08:45:42.512Z,986.95
2023-04-22T08:46:42.514Z,986.94
2023-04-22T08:47:42.542Z,986.97
2023-04-22T08:48:42.519Z,986.96
2023-04-22T08:49:42.456Z,987.02
2023-04-22T08:50:42.489Z,987.00
2023-04-22T08:51:42.488Z,986.95
2023-04-22T08:52:42.455Z,986.96
2023-04-22T08:53:42.435Z,986.94
2023-04-22T08:54:42.483Z,987.02
2023-04-22T08:55:42.460Z,986.97
2023-04-22T08:56:42.476Z,986.94
2023-04-22T08:57:42.500Z,986.94
2023-04-22T08:58:42.477Z,986.91
2023-04-22T08:59:42.641Z,986.88
2023-04-22T09:00:42.450Z,986.91
2023-04-22T09:01:42.552Z,986.86
2023-04-22T09:02:42.518Z,986.82
2023-04-22T09:03:42.534Z,986.81
2023-04-22T09:04:42.432Z,986.86
2023-04-22T09:05:42.390Z,986.92
2023-04-22T09:06:42.469Z,986.80
2023-04-22T09:07:42.614Z,986.84
2023-04-22T09:08:42.411Z,986.80
2023-04-22T09:09:42.428Z,986.79
2023-04-22T09:10:42.363Z,986.79
2023-04-22T09:11:42.363Z,986.80
2023-04-22T09:12:42.456Z,986.73
2023-04-22T09:13:42.365Z,986.76
2023-04-22T09:14:42.387Z,986.76
2023-04-22T09:15:42.349Z,986.78
2023-04-22T09:16:42.367Z,986.77
2023-04-22T09:17:42.400Z,986.80
2023-04-22T09:18:42.340Z,986.72
2023-04-22T09:19:42.463Z,986.73
2023-04-22T09:20:42.434Z,986.74
2023-04-22T09:21:42.348Z,986.75
2023-04-22T09:22:42.342Z,986.69
2023-04-22T09:23:42.352Z,986.74
2023-04-22T09:24:42.312Z,986.70
2023-04-22T09:25:42.351Z,986.69
2023-04-22T09:26:42.334Z,986.73
2023-04-22T09:27:42.287Z,986.73
2023-04-22T09:28:42.301Z,986.76
2023-04-22T09:29:42.303Z,986.71
2023-04-22T09:30:42.316Z,986.68
2023-04-22T09:31:42.438Z,986.69
2023-04-22T09:32:42.386Z,986.70
2023-04-22T09:33:42.556Z,986.66
2023-04-22T09:34:42.269Z,986.72
2023-04-22T09:35:42.302Z,986.67
2023-04-22T09:36:42.287Z,986.64
2023-04-22T09:37:49.149Z,986.69
2023-04-22T09:38:42.273Z,986.64
2023-04-22T09:39:42.256Z,986.67
2023-04-22T09:40:42.251Z,986.66
2023-04-22T09:41:42.254Z,986.66
2023-04-22T09:42:42.348Z,986.63
2023-04-22T09:43:42.246Z,986.63
2023-04-22T09:44:42.244Z,986.63
2023-04-22T09:45:42.342Z,986.65
2023-04-22T09:46:42.232Z,986.62
2023-04-22T09:47:42.280Z,986.57
2023-04-22T09:48:42.240Z,986.58
2023-04-22T09:49:42.256Z,986.61
2023-04-22T09:50:42.233Z,986.58
2023-04-22T09:51:42.193Z,986.56
2023-04-22T09:52:42.226Z,986.61
2023-04-22T09:53:42.189Z,986.58
2023-04-22T09:54:42.223Z,986.56
2023-04-22T09:55:42.171Z,986.55
2023-04-22T09:56:42.174Z,986.53
2023-04-22T09:57:42.170Z,986.56
2023-04-22T09:58:42.192Z,986.54
2023-04-22T09:59:42.417Z,986.51
2023-04-22T10:00:42.169Z,986.56
2023-04-22T10:01:42.234Z,986.52
2023-04-22T10:02:42.308Z,986.52
2023-04-22T10:03:42.191Z,986.46
2023-04-22T10:04:42.146Z,986.55
2023-04-22T10:05:42.190Z,986.53
2023-04-22T10:06:42.171Z,986.53
2023-04-22T10:07:42.193Z,986.44
2023-04-22T10:08:42.155Z,986.47
2023-04-22T10:09:42.224Z,986.45
2023-04-22T10:10:42.135Z,986.38
2023-04-22T10:11:42.111Z,986.46
2023-04-22T10:12:42.123Z,986.47
2023-04-22T10:13:42.125Z,986.41
2023-04-22T10:14:42.127Z,986.41
2023-04-22T10:15:42.114Z,986.40
2023-04-22T10:16:42.161Z,986.44
2023-04-22T10:17:42.172Z,986.41
2023-04-22T10:18:42.129Z,986.35
2023-04-22T10:19:42.323Z,986.33
2023-04-22T10:20:42.109Z,986.30
2023-04-22T10:21:42.076Z,986.30
2023-04-22T10:22:42.076Z,986.33
2023-04-22T10:23:42.075Z,986.28
2023-04-22T10:24:42.117Z,986.28
2023-04-22T10:25:42.077Z,986.24
2023-04-22T10:26:42.107Z,986.25
2023-04-22T10:27:42.057Z,986.26
2023-04-22T10:28:42.051Z,986.23
2023-04-22T10:29:42.248Z,986.22
2023-04-22T10:30:42.306Z,986.23
2023-04-22T10:31:42.032Z,986.22
2023-04-22T10:32:42.060Z,986.19
2023-04-22T10:33:42.019Z,986.15
2023-04-22T10:34:42.031Z,986.14
2023-04-22T10:35:42.026Z,986.16
2023-04-22T10:36:42.021Z,986.22
2023-04-22T10:37:42.021Z,986.25
2023-04-22T10:38:42.083Z,986.14
2023-04-22T10:39:42.665Z,986.09
2023-04-22T10:40:42.017Z,986.10
2023-04-22T10:41:42.006Z,986.11
2023-04-22T10:42:42.016Z,986.07
2023-04-22T10:43:42.013Z,986.01
2023-04-22T10:44:42.010Z,986.05
2023-04-22T10:45:41.992Z,986.03
2023-04-22T10:46:42.023Z,986.02
2023-04-22T10:47:42.124Z,986.01
2023-04-22T10:48:41.986Z,986.02
2023-04-22T10:49:42.063Z,985.96
2023-04-22T10:50:41.958Z,985.98
2023-04-22T10:51:41.989Z,986.00
2023-04-22T10:52:41.973Z,985.93
2023-04-22T10:53:42.147Z,985.96
2023-04-22T10:54:41.962Z,985.90
2023-04-22T10:55:41.992Z,985.96
2023-04-22T10:56:48.432Z,985.87
2023-04-22T10:57:41.929Z,985.85
2023-04-22T10:58:41.965Z,985.88
2023-04-22T10:59:41.949Z,985.88
2023-04-22T11:00:52.268Z,985.85
2023-04-22T11:01:42.009Z,985.84
2023-04-22T11:02:42.126Z,985.83
2023-04-22T11:03:42.020Z,985.80
2023-04-22T11:04:41.959Z,985.81
2023-04-22T11:05:41.920Z,985.78
2023-04-22T11:06:41.922Z,985.81
2023-04-22T11:07:41.918Z,985.79
2023-04-22T11:08:41.931Z,985.78
2023-04-22T11:09:41.971Z,985.71
2023-04-22T11:10:43.761Z,985.76
2023-04-22T11:11:41.906Z,985.76
2023-04-22T11:12:42.108Z,985.77
2023-04-22T11:13:41.896Z,985.75
2023-04-22T11:14:41.868Z,985.78
2023-04-22T11:15:41.892Z,985.80
2023-04-22T11:16:41.976Z,985.77
2023-04-22T11:17:41.928Z,985.78
2023-04-22T11:18:41.939Z,985.76
2023-04-22T11:19:41.872Z,985.80
2023-04-22T11:20:41.887Z,985.77
2023-04-22T11:21:41.915Z,985.72
2023-04-22T11:22:41.891Z,985.75
2023-04-22T11:23:41.834Z,985.77
2023-04-22T11:24:41.852Z,985.71
2023-04-22T11:25:41.911Z,985.72
2023-04-22T11:26:41.851Z,985.74
2023-04-22T11:27:41.869Z,985.70
2023-04-22T11:28:41.999Z,985.71
2023-04-22T11:29:41.885Z,985.72
2023-04-22T11:30:41.836Z,985.69
2023-04-22T11:31:41.944Z,985.71
2023-04-22T11:32:41.865Z,985.68
2023-04-22T11:33:41.827Z,985.72
2023-04-22T11:34:41.807Z,985.68
2023-04-22T11:35:41.834Z,985.71
2023-04-22T11:36:41.829Z,985.57
2023-04-22T11:37:41.811Z,985.60
2023-04-22T11:38:41.790Z,985.62
2023-04-22T11:40:01.647Z,985.62
2023-04-22T11:40:45.044Z,985.67
2023-04-22T11:41:41.803Z,985.71
2023-04-22T11:42:41.823Z,985.59
2023-04-22T11:43:41.776Z,985.53
2023-04-22T11:44:41.820Z,985.58
2023-04-22T11:45:41.845Z,985.64
2023-04-22T11:46:41.808Z,985.62
2023-04-22T11:47:41.822Z,985.55
2023-04-22T11:48:41.799Z,985.51
2023-04-22T11:49:41.791Z,985.53
2023-04-22T11:50:41.785Z,985.46
2023-04-22T11:51:41.760Z,985.53
2023-04-22T11:52:42.000Z,985.49
2023-04-22T11:53:41.961Z,985.43
2023-04-22T11:54:41.741Z,985.45
2023-04-22T11:55:41.769Z,985.45
2023-04-22T11:56:41.744Z,985.42
2023-04-22T11:57:41.752Z,985.46
2023-04-22T11:58:41.763Z,985.48
2023-04-22T11:59:41.970Z,985.50
2023-04-22T12:00:41.738Z,985.43
2023-04-22T12:01:41.786Z,985.50
2023-04-22T12:02:41.848Z,985.48
2023-04-22T12:03:42.449Z,985.48
2023-04-22T12:04:41.708Z,985.46
2023-04-22T12:05:41.732Z,985.49
2023-04-22T12:06:41.895Z,985.47
2023-04-22T12:07:41.748Z,985.50
2023-04-22T12:08:41.697Z,985.51
2023-04-22T12:09:41.903Z,985.43
2023-04-22T12:10:41.711Z,985.39
2023-04-22T12:11:41.675Z,985.43
2023-04-22T12:12:41.694Z,985.45
2023-04-22T12:13:41.681Z,985.41
2023-04-22T12:14:41.654Z,985.41
2023-04-22T12:15:41.657Z,985.39
2023-04-22T12:16:41.700Z,985.37
2023-04-22T12:17:41.718Z,985.38
2023-04-22T12:18:41.665Z,985.41
2023-04-22T12:19:41.968Z,985.34
2023-04-22T12:20:41.642Z,985.37
2023-04-22T12:21:41.642Z,985.35
2023-04-22T12:22:41.835Z,985.31
2023-04-22T12:23:41.645Z,985.27
2023-04-22T12:24:41.644Z,985.28
2023-04-22T12:25:41.690Z,985.25
2023-04-22T12:26:41.645Z,985.22
2023-04-22T12:27:41.626Z,985.24
2023-04-22T12:28:41.845Z,985.22